createdAt,value
2018-04-26T00:00:16.384Z,2.30
2018-04-26T00:02:44.638Z,1.77
2018-04-26T00:05:12.895Z,2.13
2018-04-26T00:07:41.159Z,1.90
2018-04-26T00:10:09.426Z,1.47
2018-04-26T00:12:37.661Z,1.77
2018-04-26T00:15:06.695Z,1.80
2018-04-26T00:17:34.971Z,2.50
2018-04-26T00:20:03.942Z,1.30
2018-04-26T00:22:32.987Z,1.80
2018-04-26T00:25:01.218Z,1.87
2018-04-26T00:27:29.454Z,1.97
2018-04-26T00:29:57.745Z,1.87
2018-04-26T00:32:25.993Z,2.00
2018-04-26T00:34:54.247Z,1.80
2018-04-26T00:37:22.485Z,1.63
2018-04-26T00:39:50.735Z,2.47
2018-04-26T00:42:18.982Z,1.50
2018-04-26T00:44:48.323Z,2.03
2018-04-26T00:47:16.548Z,1.90
2018-04-26T00:49:44.784Z,1.83
2018-04-26T00:52:13.043Z,1.70
2018-04-26T00:54:42.071Z,1.93
2018-04-26T00:57:10.310Z,1.40
2018-04-26T00:59:38.550Z,1.70
2018-04-26T01:02:06.812Z,1.30
2018-04-26T01:04:35.076Z,1.40
2018-04-26T01:07:03.317Z,1.20
2018-04-26T01:09:31.641Z,1.67
2018-04-26T01:11:59.905Z,1.90
2018-04-26T01:14:28.179Z,1.77
2018-04-26T01:16:57.176Z,1.67
2018-04-26T01:19:26.196Z,1.50
2018-04-26T01:21:54.440Z,2.00
2018-04-26T01:24:23.462Z,1.70
2018-04-26T01:26:51.753Z,1.20
2018-04-26T01:29:20.354Z,1.60
2018-04-26T01:31:48.585Z,2.93
2018-04-26T01:34:17.596Z,2.87
2018-04-26T01:36:58.409Z,1.70
2018-04-26T01:39:26.636Z,1.63
2018-04-26T01:41:55.653Z,1.60
2018-04-26T01:44:23.964Z,3.53
2018-04-26T01:46:52.224Z,1.97
2018-04-26T01:49:20.480Z,1.83
2018-04-26T01:51:49.520Z,1.87
2018-04-26T01:54:17.771Z,1.60
2018-04-26T01:56:48.112Z,2.17
2018-04-26T01:59:16.366Z,2.30
2018-04-26T02:01:45.436Z,1.70
2018-04-26T02:04:13.647Z,2.13
2018-04-26T02:06:42.650Z,1.83
2018-04-26T02:55:04.389Z,2.57
2018-04-26T02:57:33.435Z,2.77
2018-04-26T03:00:01.676Z,3.10
2018-04-26T03:02:29.971Z,2.93
2018-04-26T03:04:58.265Z,2.30
2018-04-26T03:07:26.512Z,2.40
2018-04-26T03:09:55.517Z,2.97
2018-04-26T03:12:24.535Z,3.10
2018-04-26T03:14:52.764Z,3.50
2018-04-26T03:17:21.806Z,2.93
2018-04-26T03:19:50.052Z,2.53
2018-04-26T03:22:19.276Z,2.47
2018-04-26T03:24:48.276Z,2.33
2018-04-26T03:27:16.575Z,2.37
2018-04-26T03:29:44.805Z,4.40
2018-04-26T03:32:13.092Z,3.17
2018-04-26T03:34:41.322Z,3.73
2018-04-26T03:37:09.569Z,3.30
2018-04-26T03:39:38.574Z,4.77
2018-04-26T03:42:07.590Z,3.73
2018-04-26T03:44:35.828Z,4.00
2018-04-26T03:47:04.078Z,3.43
2018-04-26T03:49:32.360Z,4.80
2018-04-26T03:52:01.417Z,4.40
2018-04-26T03:54:29.665Z,4.53
2018-04-26T03:56:57.900Z,3.30
2018-04-26T03:59:26.164Z,3.60
2018-04-26T04:02:06.352Z,4.47
2018-04-26T04:04:46.654Z,5.03
2018-04-26T04:07:15.671Z,5.67
2018-04-26T04:09:43.913Z,3.63
2018-04-26T04:12:12.171Z,4.20
2018-04-26T04:14:40.410Z,4.10
2018-04-26T04:17:08.664Z,5.17
2018-04-26T04:19:37.700Z,5.90
2018-04-26T04:22:05.945Z,4.80
2018-04-26T04:24:34.974Z,4.60
2018-04-26T04:27:03.196Z,4.80
2018-04-26T04:29:31.463Z,4.30
2018-04-26T04:31:59.688Z,5.03
2018-04-26T04:34:27.965Z,4.13
2018-04-26T04:36:56.993Z,5.00
2018-04-26T04:39:25.289Z,4.83
2018-04-26T04:41:53.558Z,6.00
2018-04-26T04:44:21.832Z,4.40
2018-04-26T04:46:50.063Z,4.50
2018-04-26T04:49:18.343Z,5.13
2018-04-26T04:51:46.582Z,4.57
2018-04-26T04:54:14.837Z,5.37
2018-04-26T04:56:43.103Z,4.23
2018-04-26T04:59:12.131Z,4.47
2018-04-26T05:01:40.388Z,4.30
2018-04-26T05:04:09.421Z,4.73
2018-04-26T05:06:37.660Z,4.67
2018-04-26T05:09:06.684Z,4.20
2018-04-26T05:11:34.921Z,4.37
2018-04-26T05:14:03.193Z,4.63
2018-04-26T05:16:31.467Z,4.97
2018-04-26T05:18:59.707Z,5.07
2018-04-26T05:21:28.033Z,4.13
2018-04-26T05:23:56.250Z,5.83
2018-04-26T05:26:25.274Z,4.07
2018-04-26T05:28:53.592Z,4.90
2018-04-26T05:31:21.860Z,4.70
2018-04-26T05:33:50.090Z,3.80
2018-04-26T05:36:19.104Z,5.10
2018-04-26T05:38:47.334Z,4.30
2018-04-26T05:41:15.591Z,4.03
2018-04-26T05:43:43.857Z,4.27
2018-04-26T05:46:12.478Z,5.43
2018-04-26T05:48:40.721Z,4.30
2018-04-26T05:51:08.966Z,4.50
2018-04-26T05:53:37.984Z,4.77
2018-04-26T05:56:06.248Z,4.60
2018-04-26T05:58:35.255Z,3.40
2018-04-26T06:01:03.514Z,3.03
2018-04-26T06:03:32.597Z,4.30
2018-04-26T06:06:00.788Z,3.00
2018-04-26T06:08:29.848Z,4.00
2018-04-26T06:10:58.088Z,4.10
2018-04-26T06:13:26.380Z,4.00
2018-04-26T06:15:54.615Z,4.50
2018-04-26T06:18:23.620Z,3.60
2018-04-26T06:20:52.666Z,3.25
2018-04-26T06:23:20.912Z,3.28
2018-04-26T06:25:49.947Z,3.10
2018-04-26T06:28:18.184Z,2.90
2018-04-26T06:30:47.194Z,3.03
2018-04-26T06:33:16.185Z,3.10
2018-04-26T06:35:45.218Z,2.45
2018-04-26T06:38:13.473Z,2.70
2018-04-26T06:40:41.724Z,2.75
2018-04-26T06:43:09.973Z,2.50
2018-04-26T06:45:38.276Z,2.00
2018-04-26T06:48:06.509Z,2.10
2018-04-26T06:50:34.764Z,1.67
2018-04-26T06:53:03.797Z,1.90
2018-04-26T06:55:32.031Z,1.60
2018-04-26T06:58:01.064Z,1.80
2018-04-26T07:00:29.348Z,3.10
2018-04-26T07:02:58.327Z,2.07
2018-04-26T07:05:26.653Z,2.37
2018-04-26T07:07:54.810Z,3.47
2018-04-26T07:10:23.060Z,2.50
2018-04-26T07:12:52.080Z,2.30
2018-04-26T07:15:20.347Z,2.97
2018-04-26T07:17:48.608Z,3.50
2018-04-26T07:20:17.599Z,2.60
2018-04-26T07:22:46.615Z,2.43
2018-04-26T07:25:15.681Z,3.05
2018-04-26T07:27:43.920Z,2.92
2018-04-26T07:30:12.212Z,2.27
2018-04-26T07:32:40.905Z,2.70
2018-04-26T07:35:09.153Z,2.90
2018-04-26T07:37:37.404Z,3.03
2018-04-26T07:40:05.673Z,3.97
2018-04-26T07:42:33.884Z,3.27
2018-04-26T07:45:02.905Z,4.17
2018-04-26T07:47:31.133Z,4.33
2018-04-26T07:50:00.866Z,5.00
2018-04-26T07:52:29.909Z,4.95
2018-04-26T07:54:58.162Z,7.57
2018-04-26T07:57:26.396Z,6.50
2018-04-26T07:59:54.681Z,6.55
2018-04-26T08:02:22.912Z,6.20
2018-04-26T08:04:51.168Z,5.27
2018-04-26T08:07:20.192Z,5.83
2018-04-26T08:09:48.451Z,5.70
2018-04-26T08:12:17.457Z,6.40
2018-04-26T08:14:45.796Z,8.00
2018-04-26T08:17:14.025Z,8.47
2018-04-26T08:19:42.271Z,8.90
2018-04-26T08:22:10.514Z,8.50
2018-04-26T08:24:38.762Z,9.10
2018-04-26T08:27:07.012Z,10.07
2018-04-26T08:29:36.048Z,10.02
2018-04-26T08:32:04.312Z,10.30
2018-04-26T08:34:32.569Z,10.73
2018-04-26T08:37:00.818Z,8.53
2018-04-26T08:39:29.053Z,10.23
2018-04-26T08:41:57.315Z,9.90
2018-04-26T08:44:26.340Z,10.50
2018-04-26T08:46:54.598Z,9.60
2018-04-26T08:49:23.609Z,10.13
2018-04-26T08:51:51.860Z,7.90
2018-04-26T08:54:20.113Z,7.50
2018-04-26T08:56:48.369Z,6.53
2018-04-26T08:59:16.612Z,6.40
2018-04-26T09:01:45.639Z,5.70
2018-04-26T09:04:13.881Z,6.60
2018-04-26T09:06:43.013Z,6.95
2018-04-26T09:09:11.196Z,7.12
2018-04-26T09:11:39.452Z,7.37
2018-04-26T09:14:07.710Z,8.13
2018-04-26T09:16:35.953Z,6.90
2018-04-26T09:19:04.221Z,7.53
2018-04-26T09:21:32.488Z,7.37
2018-04-26T09:24:02.787Z,7.40
2018-04-26T09:26:31.037Z,7.37
2018-04-26T09:28:59.332Z,7.40
2018-04-26T09:31:27.595Z,7.47
2018-04-26T09:33:55.824Z,6.00
2018-04-26T09:36:24.838Z,5.93
2018-04-26T09:38:53.098Z,5.70
2018-04-26T09:41:22.120Z,5.20
2018-04-26T09:43:50.376Z,6.12
2018-04-26T09:46:19.410Z,6.70
2018-04-26T09:48:47.732Z,6.78
2018-04-26T09:51:15.956Z,6.20
2018-04-26T09:53:44.202Z,7.73
2018-04-26T09:56:13.287Z,5.40
2018-04-26T09:58:41.505Z,5.40
2018-04-26T10:01:09.772Z,6.00
2018-04-26T10:03:38.805Z,4.90
2018-04-26T10:06:26.582Z,4.73
2018-04-26T10:08:54.844Z,4.50
2018-04-26T10:11:23.071Z,5.40
2018-04-26T10:13:52.079Z,5.50
2018-04-26T10:16:21.251Z,5.10
2018-04-26T10:18:50.253Z,5.57
2018-04-26T10:21:18.518Z,6.40
2018-04-26T10:23:46.770Z,5.67
2018-04-26T10:26:15.021Z,6.07
2018-04-26T10:28:43.281Z,4.70
2018-04-26T10:31:11.537Z,3.83
2018-04-26T10:33:40.556Z,4.20
2018-04-26T10:36:08.807Z,4.00
2018-04-26T10:38:37.824Z,3.70
2018-04-26T10:41:06.871Z,4.10
2018-04-26T10:43:35.091Z,3.90
2018-04-26T10:46:03.378Z,4.37
2018-04-26T10:48:32.467Z,4.73
2018-04-26T10:51:01.526Z,4.60
2018-04-26T10:53:29.936Z,4.62
2018-04-26T10:55:58.656Z,3.80
2018-04-26T10:58:27.881Z,3.93
2018-04-26T11:00:56.120Z,3.33
2018-04-26T11:03:24.375Z,4.30
2018-04-26T11:05:52.633Z,5.25
2018-04-26T11:08:20.900Z,4.57
2018-04-26T11:10:49.142Z,4.28
2018-04-26T11:13:17.414Z,3.80
2018-04-26T11:15:45.681Z,3.93
2018-04-26T11:18:13.904Z,3.60
2018-04-26T11:20:42.971Z,3.77
2018-04-26T11:23:12.115Z,3.67
2018-04-26T11:25:41.112Z,4.07
2018-04-26T11:28:09.393Z,4.00
2018-04-26T11:30:37.630Z,4.50
2018-04-26T11:33:06.012Z,3.80
2018-04-26T11:35:34.263Z,4.62
2018-04-26T11:38:02.516Z,4.60
2018-04-26T11:40:30.782Z,3.87
2018-04-26T11:42:59.855Z,3.92
2018-04-26T11:45:28.081Z,2.73
2018-04-26T11:47:57.249Z,3.47
2018-04-26T11:50:25.530Z,2.53
2018-04-26T11:52:55.260Z,2.73
2018-04-26T11:55:23.535Z,3.20
2018-04-26T11:57:52.517Z,2.60
2018-04-26T12:00:20.801Z,3.20
2018-04-26T12:02:49.913Z,3.03
2018-04-26T12:05:18.815Z,3.42
2018-04-26T12:07:47.904Z,3.22
2018-04-26T12:10:17.095Z,3.03
2018-04-26T12:12:46.110Z,3.60
2018-04-26T12:15:15.125Z,3.80
2018-04-26T12:17:43.430Z,3.47
2018-04-26T12:20:11.667Z,3.83
2018-04-26T12:22:44.120Z,3.27
2018-04-26T12:25:13.197Z,3.57
2018-04-26T12:27:41.441Z,3.90
2018-04-26T12:30:09.721Z,3.50
2018-04-26T12:32:37.980Z,3.40
2018-04-26T12:35:07.080Z,3.70
2018-04-26T12:37:35.288Z,4.12
2018-04-26T12:40:03.548Z,3.57
2018-04-26T12:42:32.736Z,4.77
2018-04-26T12:45:00.865Z,4.30
2018-04-26T12:47:29.155Z,4.07
2018-04-26T12:49:57.457Z,4.70
2018-04-26T12:52:25.948Z,4.33
2018-04-26T12:54:54.198Z,5.43
2018-04-26T12:57:22.465Z,4.70
2018-04-26T12:59:50.732Z,4.90
2018-04-26T13:02:19.839Z,5.67
2018-04-26T13:04:48.151Z,4.75
2018-04-26T13:07:16.735Z,6.40
2018-04-26T13:09:46.526Z,4.68
2018-04-26T13:12:14.784Z,5.07
2018-04-26T13:14:43.126Z,4.40
2018-04-26T13:17:11.433Z,4.53
2018-04-26T13:19:39.627Z,3.63
2018-04-26T13:22:07.873Z,3.10
2018-04-26T13:24:36.103Z,3.60
2018-04-26T13:27:04.441Z,3.60
2018-04-26T13:29:32.644Z,4.00
2018-04-26T13:32:00.984Z,3.37
2018-04-26T13:34:29.240Z,3.07
2018-04-26T13:36:57.480Z,2.90
2018-04-26T13:39:26.488Z,3.43
2018-04-26T13:41:54.704Z,3.30
2018-04-26T13:44:23.004Z,3.80
2018-04-26T13:46:51.232Z,5.05
2018-04-26T13:49:19.485Z,4.03
2018-04-26T13:51:48.535Z,4.10
2018-04-26T13:54:16.765Z,3.47
2018-04-26T13:56:45.790Z,3.90
2018-04-26T13:59:14.038Z,4.20
2018-04-26T14:01:43.079Z,3.83
2018-04-26T14:04:11.349Z,4.30
2018-04-26T14:06:39.588Z,4.30
2018-04-26T14:09:07.881Z,4.20
2018-04-26T14:11:36.896Z,4.22
2018-04-26T14:14:05.921Z,3.13
2018-04-26T14:16:34.185Z,3.50
2018-04-26T14:19:03.205Z,3.20
2018-04-26T14:21:31.451Z,2.90
2018-04-26T14:24:00.195Z,2.50
2018-04-26T14:26:28.436Z,3.00
2018-04-26T14:28:56.691Z,2.60
2018-04-26T14:31:25.726Z,2.47
2018-04-26T14:33:53.961Z,2.67
2018-04-26T14:36:22.997Z,4.20
2018-04-26T14:38:51.242Z,3.43
2018-04-26T14:41:20.276Z,3.53
2018-04-26T14:43:48.533Z,3.50
2018-04-26T14:46:16.783Z,3.73
2018-04-26T14:48:45.063Z,4.00
2018-04-26T14:51:13.287Z,4.00
2018-04-26T14:53:41.600Z,4.07
2018-04-26T14:56:09.840Z,3.63
2018-04-26T14:58:38.113Z,3.77
2018-04-26T15:01:07.173Z,3.47
2018-04-26T15:03:35.388Z,3.50
2018-04-26T15:06:04.412Z,4.20
2018-04-26T15:08:32.677Z,4.70
2018-04-26T15:11:00.960Z,4.37
2018-04-26T15:13:29.233Z,4.20
2018-04-26T15:15:58.261Z,4.32
2018-04-26T15:18:26.675Z,3.43
2018-04-26T15:20:55.705Z,3.37
2018-04-26T15:23:24.691Z,4.23
2018-04-26T15:25:53.742Z,4.32
2018-04-26T15:28:21.988Z,4.30
2018-04-26T15:30:51.000Z,4.00
2018-04-26T15:33:19.254Z,3.90
2018-04-26T15:35:48.260Z,3.00
2018-04-26T15:38:16.558Z,3.30
2018-04-26T15:40:44.823Z,2.90
2018-04-26T15:43:13.115Z,3.28
2018-04-26T15:45:41.393Z,3.20
2018-04-26T15:48:10.420Z,3.03
2018-04-26T15:50:53.624Z,3.17
2018-04-26T15:53:33.767Z,3.07
2018-04-26T15:56:14.741Z,3.57
2018-04-26T15:59:10.100Z,2.13
2018-04-26T16:05:35.324Z,2.50
2018-04-26T16:08:30.322Z,2.60
2018-04-26T16:11:16.167Z,2.80
2018-04-26T16:14:02.895Z,2.42
2018-04-26T16:16:48.614Z,2.43
2018-04-26T16:19:46.556Z,2.07
2018-04-26T16:22:32.506Z,2.67
2018-04-26T16:25:12.748Z,2.50
2018-04-26T16:27:53.681Z,1.90
2018-04-26T16:30:33.989Z,2.10
2018-04-26T16:33:15.181Z,2.60
2018-04-26T16:36:08.158Z,2.13
2018-04-26T16:39:04.066Z,2.10
2018-04-26T16:41:32.344Z,2.40
2018-04-26T16:44:00.592Z,3.60
2018-04-26T16:46:28.851Z,2.58
2018-04-26T16:48:57.905Z,2.28
2018-04-26T16:51:26.108Z,2.00
2018-04-26T16:53:55.173Z,1.60
2018-04-26T16:56:23.396Z,1.77
2018-04-26T16:58:51.680Z,2.33
2018-04-26T17:01:20.691Z,4.93
2018-04-26T17:03:48.986Z,2.30
2018-04-26T17:06:17.303Z,1.77
2018-04-26T17:08:45.539Z,2.27
2018-04-26T17:11:13.807Z,2.10
2018-04-26T17:13:42.075Z,2.20
2018-04-26T17:16:11.099Z,2.95
2018-04-26T17:18:39.363Z,2.90
2018-04-26T17:21:08.351Z,2.07
2018-04-26T17:23:37.377Z,2.30
2018-04-26T17:26:05.698Z,1.90
2018-04-26T17:28:33.913Z,2.07
2018-04-26T17:31:02.219Z,2.30
2018-04-26T17:33:30.503Z,2.37
2018-04-26T17:35:58.776Z,2.23
2018-04-26T17:38:27.170Z,2.40
2018-04-26T17:40:55.404Z,2.37
2018-04-26T17:43:24.444Z,2.47
2018-04-26T17:45:52.732Z,2.50
2018-04-26T17:48:21.020Z,2.70
2018-04-26T17:50:49.243Z,2.40
2018-04-26T17:53:18.300Z,2.23
2018-04-26T17:55:46.581Z,2.43
2018-04-26T17:58:14.869Z,2.00
2018-04-26T18:00:43.097Z,2.53
2018-04-26T18:03:11.381Z,2.47
2018-04-26T18:05:39.620Z,4.23
2018-04-26T18:08:07.874Z,3.70
2018-04-26T18:10:36.164Z,6.03
2018-04-26T18:13:04.449Z,7.30
2018-04-26T18:15:32.720Z,7.30
2018-04-26T18:18:00.971Z,6.62
2018-04-26T18:20:29.240Z,7.25
2018-04-26T18:22:58.258Z,5.80
2018-04-26T18:25:26.534Z,6.70
2018-04-26T18:27:54.773Z,5.87
2018-04-26T18:30:23.051Z,5.70
2018-04-26T18:32:51.324Z,6.40
2018-04-26T18:35:19.591Z,5.90
2018-04-26T18:37:47.941Z,6.27
2018-04-26T18:40:16.236Z,7.70
2018-04-26T18:42:44.497Z,7.60
2018-04-26T18:45:12.793Z,8.05
2018-04-26T18:47:41.116Z,6.17
2018-04-26T18:50:10.376Z,7.00
2018-04-26T18:52:38.676Z,5.70
2018-04-26T18:55:07.005Z,5.73
2018-04-26T18:57:36.002Z,7.03
2018-04-26T19:00:04.326Z,7.87
2018-04-26T19:02:32.615Z,9.30
2018-04-26T19:05:00.885Z,8.20
2018-04-26T19:07:29.156Z,8.80
2018-04-26T19:09:57.409Z,7.17
2018-04-26T19:12:26.466Z,7.03
2018-04-26T19:14:54.728Z,6.90
2018-04-26T19:17:22.984Z,6.63
2018-04-26T19:19:51.262Z,7.63
2018-04-26T19:22:19.581Z,8.65
2018-04-26T19:24:47.853Z,8.97
2018-04-26T19:27:16.162Z,8.63
2018-04-26T19:29:45.197Z,7.83
2018-04-26T19:32:13.520Z,7.67
2018-04-26T19:34:46.069Z,7.17
2018-04-26T19:37:15.102Z,6.60
2018-04-26T19:39:44.880Z,5.60
2018-04-26T19:42:13.135Z,5.07
2018-04-26T19:44:42.165Z,6.37
2018-04-26T19:47:10.419Z,6.00
2018-04-26T19:49:39.568Z,6.50
2018-04-26T19:52:07.823Z,6.20
2018-04-26T19:54:36.051Z,5.80
2018-04-26T19:57:05.417Z,5.20
2018-04-26T19:59:33.954Z,5.93
2018-04-26T20:02:03.032Z,6.10
2018-04-26T20:04:31.285Z,5.20
2018-04-26T20:06:59.617Z,5.87
2018-04-26T20:09:27.933Z,4.70
2018-04-26T20:11:56.258Z,3.70
2018-04-26T20:14:24.504Z,4.70
2018-04-26T20:16:52.735Z,4.83
2018-04-26T20:19:21.908Z,4.30
2018-04-26T20:21:50.937Z,4.27
2018-04-26T20:24:20.000Z,4.03
2018-04-26T20:26:49.271Z,3.53
2018-04-26T20:29:18.276Z,3.77
2018-04-26T20:31:47.563Z,4.40
2018-04-26T20:34:15.851Z,4.00
2018-04-26T20:36:44.064Z,2.93
2018-04-26T20:39:12.301Z,3.53
2018-04-26T20:41:55.486Z,3.57
2018-04-26T20:44:35.517Z,3.67
2018-04-26T20:47:03.785Z,3.80
2018-04-26T20:49:32.012Z,3.40
2018-04-26T20:52:01.053Z,4.27
2018-04-26T20:54:29.391Z,3.90
2018-04-26T20:56:57.604Z,3.87
2018-04-26T20:59:25.886Z,3.53
2018-04-26T21:01:54.132Z,3.50
2018-04-26T21:04:23.196Z,3.40
2018-04-26T21:06:51.422Z,3.87
2018-04-26T21:09:20.471Z,3.10
2018-04-26T21:11:48.708Z,3.27
2018-04-26T21:14:16.965Z,3.70
2018-04-26T21:16:46.010Z,4.50
2018-04-26T21:19:14.261Z,3.20
2018-04-26T21:21:43.303Z,3.43
2018-04-26T21:24:11.530Z,3.90
2018-04-26T21:26:39.805Z,3.50
2018-04-26T21:29:08.825Z,4.03
2018-04-26T21:31:37.854Z,3.13
2018-04-26T21:34:06.088Z,3.23
2018-04-26T21:36:35.111Z,3.97
2018-04-26T21:39:03.364Z,3.70
2018-04-26T21:41:31.665Z,4.20
2018-04-26T21:43:59.945Z,3.30
2018-04-26T21:46:28.929Z,3.63
2018-04-26T21:48:57.976Z,3.63
2018-04-26T21:51:31.965Z,4.20
2018-04-26T21:54:05.983Z,3.73
2018-04-26T21:56:39.943Z,3.50
2018-04-26T21:59:13.997Z,3.43
2018-04-26T22:01:47.917Z,3.67
2018-04-26T22:04:21.917Z,3.77
2018-04-26T22:06:51.125Z,3.73
2018-04-26T22:09:19.421Z,3.77
2018-04-26T22:11:47.656Z,4.40
2018-04-26T22:14:16.689Z,4.40
2018-04-26T22:16:44.934Z,3.43
2018-04-26T22:19:13.977Z,4.20
2018-04-26T22:21:42.240Z,4.60
2018-04-26T22:24:10.478Z,3.90
2018-04-26T22:26:38.754Z,4.03
2018-04-26T22:29:06.996Z,4.17
2018-04-26T22:31:35.231Z,4.23
2018-04-26T22:34:03.494Z,3.90
2018-04-26T22:36:32.530Z,3.90
2018-04-26T22:39:00.809Z,3.77
2018-04-26T22:41:29.041Z,4.20
2018-04-26T22:43:57.301Z,4.37
2018-04-26T22:46:26.520Z,3.93
2018-04-26T22:48:54.750Z,3.20
2018-04-26T22:51:23.012Z,4.30
2018-04-26T22:53:52.004Z,4.33
2018-04-26T22:56:21.058Z,3.60
2018-04-26T22:58:49.280Z,3.97
2018-04-26T23:01:18.308Z,4.03
2018-04-26T23:03:46.615Z,5.37
2018-04-26T23:06:14.869Z,4.87
2018-04-26T23:08:43.197Z,3.83
2018-04-26T23:11:12.149Z,4.80
2018-04-26T23:13:40.389Z,4.60
2018-04-26T23:16:09.407Z,5.10
2018-04-26T23:18:37.661Z,4.20
2018-04-26T23:21:05.919Z,4.57
2018-04-26T23:23:34.170Z,3.93
2018-04-26T23:26:02.391Z,4.03
2018-04-26T23:28:30.637Z,4.20
2018-04-26T23:30:58.868Z,4.43
2018-04-26T23:33:27.897Z,4.30
2018-04-26T23:35:56.127Z,3.70
2018-04-26T23:38:25.899Z,4.47
2018-04-26T23:40:54.176Z,4.03
2018-04-26T23:43:22.409Z,4.77
2018-04-26T23:45:51.404Z,3.53
2018-04-26T23:48:19.660Z,4.43
2018-04-26T23:50:47.952Z,3.87
2018-04-26T23:53:16.202Z,4.23
2018-04-26T23:55:44.465Z,4.97
2018-04-26T23:58:12.716Z,4.60
